Time;durP1;ratioP1;P1;durP2;ratioP2;P2;SDS_P1;SDS_P2;PMS_P1;PMS_P2;Temp;Humidity;BMP_temperature;BMP_pressure;BME280_temperature;BME280_humidity;BME280_pressure;Samples;Min_cycle;Max_cycle;Signal;HPM_P1;HPM_P2
2023/09/30 00:02:12;;;;;;;24.52;14.73;;;;;;;;;;5114147;28;20198;-60
2023/09/30 00:04:39;;;;;;;23.58;14.20;;;;;;;;;;5114110;28;20206;-59
2023/09/30 00:07:06;;;;;;;27.33;14.68;;;;;;;;;;5114084;28;20658;-60
2023/09/30 00:09:34;;;;;;;29.00;15.25;;;;;;;;;;5114037;28;20213;-60
2023/09/30 00:12:01;;;;;;;24.77;14.55;;;;;;;;;;5113815;28;20226;-60
2023/09/30 00:14:29;;;;;;;32.85;15.38;;;;;;;;;;5114011;28;20210;-60
2023/09/30 00:16:56;;;;;;;25.45;13.93;;;;;;;;;;5113992;28;20198;-60
2023/09/30 00:19:24;;;;;;;25.92;15.40;;;;;;;;;;5114074;28;20202;-60
2023/09/30 00:21:51;;;;;;;23.90;13.70;;;;;;;;;;5114024;28;20194;-60
2023/09/30 00:24:18;;;;;;;26.17;14.50;;;;;;;;;;5114014;28;20197;-60
2023/09/30 00:26:46;;;;;;;26.55;14.45;;;;;;;;;;5113946;28;20257;-60
2023/09/30 00:29:13;;;;;;;24.70;14.63;;;;;;;;;;5114346;28;20209;-60
2023/09/30 00:31:40;;;;;;;28.90;14.52;;;;;;;;;;5113948;28;20210;-60
2023/09/30 00:34:08;;;;;;;24.02;14.85;;;;;;;;;;5114205;28;20206;-60
2023/09/30 00:36:35;;;;;;;24.92;13.93;;;;;;;;;;5113741;28;20244;-60
2023/09/30 00:39:03;;;;;;;23.95;13.85;;;;;;;;;;5113761;28;20206;-59
2023/09/30 00:41:30;;;;;;;21.58;13.25;;;;;;;;;;5112413;28;20681;-60
2023/09/30 00:43:58;;;;;;;32.00;14.07;;;;;;;;;;5112865;28;20228;-60
2023/09/30 00:46:30;;;;;;;27.42;14.05;;;;;;;;;;5113540;28;20681;-61
2023/09/30 00:48:58;;;;;;;25.27;13.80;;;;;;;;;;5096101;28;20204;-59
2023/09/30 00:51:26;;;;;;;20.60;13.32;;;;;;;;;;5112486;28;20552;-59
2023/09/30 00:53:56;;;;;;;26.15;13.57;;;;;;;;;;5116151;28;20202;-60
2023/09/30 00:56:26;;;;;;;24.58;13.52;;;;;;;;;;5116429;28;20698;-59
2023/09/30 00:58:54;;;;;;;24.60;13.90;;;;;;;;;;5117895;28;20201;-60
2023/09/30 01:01:21;;;;;;;25.98;15.20;;;;;;;;;;5117643;28;20198;-59
2023/09/30 01:03:49;;;;;;;34.30;25.98;;;;;;;;;;5117509;28;20666;-60
2023/09/30 01:06:16;;;;;;;43.97;31.00;;;;;;;;;;5117518;27;20205;-60
2023/09/30 01:08:44;;;;;;;46.00;35.58;;;;;;;;;;5117425;28;20209;-60
2023/09/30 01:11:12;;;;;;;42.28;34.38;;;;;;;;;;5117397;28;20597;-60
2023/09/30 01:13:39;;;;;;;46.35;35.45;;;;;;;;;;5099326;28;20194;-60
2023/09/30 01:16:11;;;;;;;49.15;40.60;;;;;;;;;;5116198;28;20585;-59
2023/09/30 01:18:40;;;;;;;212.02;158.50;;;;;;;;;;5116030;28;20218;-60
2023/09/30 01:21:08;;;;;;;152.63;116.10;;;;;;;;;;5117456;28;20204;-59
2023/09/30 01:23:35;;;;;;;106.43;85.40;;;;;;;;;;5115923;28;20198;-60
2023/09/30 01:26:04;;;;;;;83.78;69.05;;;;;;;;;;5117238;28;20658;-61
2023/09/30 01:28:31;;;;;;;57.65;47.95;;;;;;;;;;5117355;28;20205;-60
2023/09/30 01:30:58;;;;;;;52.83;41.88;;;;;;;;;;5116949;28;20206;-61
2023/09/30 01:33:26;;;;;;;53.80;38.15;;;;;;;;;;5115833;28;20201;-60
2023/09/30 01:35:54;;;;;;;26.83;16.13;;;;;;;;;;5117229;28;20253;-60
2023/09/30 01:38:21;;;;;;;32.97;20.13;;;;;;;;;;5117055;28;20202;-60
2023/09/30 01:40:48;;;;;;;24.73;14.23;;;;;;;;;;5116942;28;20210;-60
2023/09/30 01:43:15;;;;;;;34.60;22.35;;;;;;;;;;5116710;28;20608;-60
2023/09/30 01:45:45;;;;;;;25.83;17.42;;;;;;;;;;5115710;28;20198;-60
2023/09/30 01:48:12;;;;;;;29.70;19.25;;;;;;;;;;5116539;28;20202;-60
2023/09/30 01:50:40;;;;;;;33.28;16.80;;;;;;;;;;5115686;28;20198;-60
2023/09/30 01:53:07;;;;;;;25.48;14.75;;;;;;;;;;5115594;28;20208;-60
2023/09/30 01:55:35;;;;;;;25.40;14.30;;;;;;;;;;5098452;28;20709;-60
2023/09/30 01:58:03;;;;;;;23.25;13.48;;;;;;;;;;5115427;28;20202;-60
2023/09/30 02:00:30;;;;;;;20.95;12.50;;;;;;;;;;5115142;28;20201;-60
2023/09/30 02:02:58;;;;;;;23.92;12.60;;;;;;;;;;5116213;28;20202;-60
2023/09/30 02:05:25;;;;;;;23.02;12.27;;;;;;;;;;5115766;28;20214;-60
2023/09/30 02:07:53;;;;;;;16.95;11.57;;;;;;;;;;5116536;28;20210;-60
2023/09/30 02:10:20;;;;;;;22.88;12.93;;;;;;;;;;5116446;28;20226;-60
2023/09/30 02:12:48;;;;;;;24.42;13.25;;;;;;;;;;5116275;28;20220;-59
2023/09/30 02:15:16;;;;;;;23.30;12.30;;;;;;;;;;5114953;28;20248;-60
2023/09/30 02:17:45;;;;;;;31.30;12.73;;;;;;;;;;5115180;28;20201;-60
2023/09/30 02:20:18;;;;;;;20.20;12.10;;;;;;;;;;5114860;28;20797;-60
2023/09/30 02:22:47;;;;;;;20.85;12.88;;;;;;;;;;5114887;28;20198;-60
2023/09/30 02:25:15;;;;;;;23.67;12.20;;;;;;;;;;5116059;28;20567;-60
2023/09/30 02:27:42;;;;;;;22.08;12.25;;;;;;;;;;5115807;28;20662;-60
2023/09/30 02:30:11;;;;;;;19.42;11.38;;;;;;;;;;5115823;28;20210;-60
2023/09/30 02:32:40;;;;;;;21.15;11.95;;;;;;;;;;5114878;28;20263;-60
2023/09/30 02:35:08;;;;;;;20.13;12.40;;;;;;;;;;5114639;28;20293;-60
2023/09/30 02:37:35;;;;;;;20.05;11.95;;;;;;;;;;5115037;28;20239;-60
2023/09/30 02:40:10;;;;;;;22.60;12.20;;;;;;;;;;5115689;28;20661;-60
2023/09/30 02:42:39;;;;;;;23.20;12.38;;;;;;;;;;5115947;28;20209;-60
2023/09/30 02:45:10;;;;;;;19.38;11.63;;;;;;;;;;5115903;28;20205;-59
2023/09/30 02:47:39;;;;;;;24.75;11.55;;;;;;;;;;5114583;28;20198;-60
2023/09/30 02:50:25;;;;;;;19.90;11.82;;;;;;;;;;5115462;28;20285;-60
2023/09/30 02:52:53;;;;;;;18.10;11.40;;;;;;;;;;5115717;28;20202;-60
2023/09/30 02:55:20;;;;;;;19.33;11.95;;;;;;;;;;5114462;28;20240;-60
2023/09/30 02:57:48;;;;;;;21.63;11.55;;;;;;;;;;5115627;28;20212;-60
2023/09/30 03:00:24;;;;;;;21.75;12.13;;;;;;;;;;5115295;28;20306;-60
2023/09/30 03:02:53;;;;;;;22.30;12.25;;;;;;;;;;5115187;27;20197;-60
2023/09/30 03:05:21;;;;;;;18.48;11.35;;;;;;;;;;5115063;28;20206;-60
2023/09/30 03:07:52;;;;;;;22.17;12.25;;;;;;;;;;5113913;28;20719;-60
2023/09/30 03:10:23;;;;;;;23.60;12.55;;;;;;;;;;5115222;28;20213;-60
2023/09/30 03:12:51;;;;;;;25.40;13.20;;;;;;;;;;5115174;28;20206;-60
2023/09/30 03:15:19;;;;;;;23.15;12.15;;;;;;;;;;5114887;28;20654;-60
2023/09/30 03:17:47;;;;;;;21.63;11.77;;;;;;;;;;5114906;27;20566;-60
2023/09/30 03:20:20;;;;;;;21.10;11.80;;;;;;;;;;5115196;28;20204;-60
2023/09/30 03:22:47;;;;;;;21.20;11.80;;;;;;;;;;5115060;28;20549;-60
2023/09/30 03:25:17;;;;;;;22.10;12.60;;;;;;;;;;5114802;28;20284;-60
2023/09/30 03:27:48;;;;;;;26.95;12.63;;;;;;;;;;5115154;28;20209;-60
2023/09/30 03:30:16;;;;;;;22.30;11.80;;;;;;;;;;5114771;28;20229;-60
2023/09/30 03:32:44;;;;;;;20.13;12.02;;;;;;;;;;5113579;28;20205;-60
2023/09/30 03:35:16;;;;;;;22.70;12.13;;;;;;;;;;5113903;28;20197;-60
2023/09/30 03:37:46;;;;;;;22.40;12.45;;;;;;;;;;5113900;28;20545;-60
2023/09/30 03:40:14;;;;;;;23.05;12.75;;;;;;;;;;5114155;28;20210;-60
2023/09/30 03:42:44;;;;;;;20.02;12.80;;;;;;;;;;5114259;28;20206;-60
2023/09/30 03:45:13;;;;;;;19.88;11.90;;;;;;;;;;5114245;28;20665;-59
2023/09/30 03:47:42;;;;;;;19.70;12.07;;;;;;;;;;5114388;28;20682;-60
2023/09/30 03:50:14;;;;;;;23.85;12.95;;;;;;;;;;5114548;28;20213;-60
2023/09/30 03:52:44;;;;;;;22.17;12.65;;;;;;;;;;5114334;28;20205;-60
2023/09/30 03:55:15;;;;;;;20.73;13.38;;;;;;;;;;5114059;28;20689;-60
2023/09/30 03:57:47;;;;;;;27.15;14.90;;;;;;;;;;5113930;28;20229;-60
2023/09/30 04:00:19;;;;;;;24.95;17.15;;;;;;;;;;5114202;28;20206;-59
2023/09/30 04:02:49;;;;;;;34.55;22.55;;;;;;;;;;5113858;28;20202;-60
2023/09/30 04:05:18;;;;;;;30.83;23.58;;;;;;;;;;5114134;28;20198;-60
2023/09/30 04:07:47;;;;;;;42.47;33.95;;;;;;;;;;5113763;28;20210;-60
2023/09/30 04:10:14;;;;;;;39.20;29.45;;;;;;;;;;5113495;28;20724;-60
2023/09/30 04:12:42;;;;;;;49.53;40.22;;;;;;;;;;5114025;28;20209;-60
2023/09/30 04:15:12;;;;;;;24.95;17.58;;;;;;;;;;5113691;28;20202;-60
2023/09/30 04:17:40;;;;;;;30.48;25.25;;;;;;;;;;5113767;28;20222;-60
2023/09/30 04:20:10;;;;;;;55.30;46.40;;;;;;;;;;5113695;28;20202;-60
2023/09/30 04:22:38;;;;;;;47.13;35.75;;;;;;;;;;5113616;28;20209;-60
2023/09/30 04:25:08;;;;;;;36.28;25.10;;;;;;;;;;5113643;28;20206;-59
2023/09/30 04:27:36;;;;;;;37.22;30.33;;;;;;;;;;5113450;28;20259;-60
2023/09/30 04:30:09;;;;;;;30.27;22.15;;;;;;;;;;5113869;28;20202;-60
2023/09/30 04:32:38;;;;;;;31.48;19.80;;;;;;;;;;5113724;28;20198;-60
2023/09/30 04:35:05;;;;;;;21.95;14.55;;;;;;;;;;5113539;28;20304;-60
2023/09/30 04:37:33;;;;;;;22.50;13.95;;;;;;;;;;5113584;28;20237;-60
2023/09/30 04:40:00;;;;;;;21.25;12.48;;;;;;;;;;5113631;28;20198;-60
2023/09/30 04:42:28;;;;;;;25.27;15.00;;;;;;;;;;5113595;28;20262;-59
2023/09/30 04:44:59;;;;;;;23.10;14.45;;;;;;;;;;5113593;28;20306;-59
2023/09/30 04:47:27;;;;;;;21.20;14.10;;;;;;;;;;5113478;28;20598;-60
2023/09/30 04:49:54;;;;;;;25.58;13.80;;;;;;;;;;5113649;28;20202;-60
2023/09/30 04:52:22;;;;;;;20.90;12.57;;;;;;;;;;5113575;28;20202;-60
2023/09/30 04:54:49;;;;;;;22.52;12.50;;;;;;;;;;5113480;28;20205;-60
2023/09/30 04:57:16;;;;;;;24.45;13.52;;;;;;;;;;5113489;28;20222;-60
2023/09/30 04:59:44;;;;;;;20.40;12.85;;;;;;;;;;5113540;28;20296;-59
2023/09/30 05:02:11;;;;;;;27.95;13.30;;;;;;;;;;5113914;28;20201;-60
2023/09/30 05:04:38;;;;;;;24.88;12.52;;;;;;;;;;5113569;28;20198;-61
2023/09/30 05:07:06;;;;;;;18.70;11.38;;;;;;;;;;5127148;28;20208;-61
2023/09/30 05:09:33;;;;;;;20.02;13.65;;;;;;;;;;5131034;27;20197;-61
2023/09/30 05:12:00;;;;;;;23.90;13.00;;;;;;;;;;5122677;27;20252;-60
2023/09/30 05:14:28;;;;;;;25.88;12.90;;;;;;;;;;5120338;28;20233;-59
2023/09/30 05:16:56;;;;;;;24.45;12.77;;;;;;;;;;5130056;28;20294;-60
2023/09/30 05:19:23;;;;;;;22.25;12.60;;;;;;;;;;5127285;27;20190;-60
2023/09/30 05:21:51;;;;;;;19.42;11.77;;;;;;;;;;5125647;27;20202;-60
2023/09/30 05:24:19;;;;;;;22.63;12.55;;;;;;;;;;5124418;28;20220;-61
2023/09/30 05:26:49;;;;;;;22.10;12.18;;;;;;;;;;5122376;28;20573;-60
2023/09/30 05:29:16;;;;;;;19.50;12.30;;;;;;;;;;5121965;28;20186;-60
2023/09/30 05:31:44;;;;;;;20.65;12.25;;;;;;;;;;5127463;27;20209;-60
2023/09/30 05:34:14;;;;;;;26.13;12.40;;;;;;;;;;5125628;28;20198;-60
2023/09/30 05:36:42;;;;;;;21.88;12.00;;;;;;;;;;5124460;28;20216;-60
2023/09/30 05:39:11;;;;;;;21.88;12.82;;;;;;;;;;5126473;27;20201;-60
2023/09/30 05:41:39;;;;;;;23.50;12.38;;;;;;;;;;5129938;27;20201;-61
2023/09/30 05:44:07;;;;;;;20.55;11.75;;;;;;;;;;5125307;27;20213;-60
2023/09/30 05:46:34;;;;;;;21.15;11.82;;;;;;;;;;5127777;27;20201;-59
2023/09/30 05:49:01;;;;;;;23.67;12.65;;;;;;;;;;5128852;27;20243;-60
2023/09/30 05:51:29;;;;;;;20.95;11.85;;;;;;;;;;5127910;27;20205;-60
2023/09/30 05:53:56;;;;;;;21.10;11.32;;;;;;;;;;5127742;27;20223;-61
2023/09/30 05:56:23;;;;;;;25.85;12.95;;;;;;;;;;5126116;27;20226;-60
2023/09/30 05:58:50;;;;;;;17.00;11.20;;;;;;;;;;5125723;27;20657;-60
2023/09/30 06:01:18;;;;;;;19.27;11.25;;;;;;;;;;5127417;27;20190;-60
2023/09/30 06:03:49;;;;;;;26.02;12.20;;;;;;;;;;5125946;27;20243;-61
2023/09/30 06:06:16;;;;;;;22.60;11.18;;;;;;;;;;5124576;27;20190;-60
2023/09/30 06:08:45;;;;;;;19.23;11.05;;;;;;;;;;5128444;27;20202;-61
2023/09/30 06:11:24;;;;;;;19.48;11.85;;;;;;;;;;5125451;27;20236;-60
2023/09/30 06:13:55;;;;;;;22.83;12.32;;;;;;;;;;5126882;27;20190;-60
2023/09/30 06:16:24;;;;;;;20.77;11.63;;;;;;;;;;5130881;27;20225;-60
2023/09/30 06:18:53;;;;;;;27.00;14.05;;;;;;;;;;5125751;27;20193;-59
2023/09/30 06:21:21;;;;;;;24.55;17.17;;;;;;;;;;5124018;27;20193;-60
2023/09/30 06:23:51;;;;;;;25.05;19.90;;;;;;;;;;5126269;27;20285;-60
2023/09/30 06:26:20;;;;;;;27.38;18.08;;;;;;;;;;5120019;27;20674;-60
2023/09/30 06:28:48;;;;;;;30.33;20.80;;;;;;;;;;5125868;27;20217;-60
2023/09/30 06:31:15;;;;;;;25.08;19.63;;;;;;;;;;5124618;27;20591;-61
2023/09/30 06:33:43;;;;;;;28.30;18.90;;;;;;;;;;5124541;27;20217;-59
2023/09/30 06:36:13;;;;;;;22.27;13.95;;;;;;;;;;5126992;27;20256;-60
2023/09/30 06:38:42;;;;;;;18.90;12.38;;;;;;;;;;5123952;27;20716;-61
2023/09/30 06:41:20;;;;;;;22.52;12.82;;;;;;;;;;5123219;27;20214;-62
2023/09/30 06:43:47;;;;;;;18.67;12.13;;;;;;;;;;5124693;27;20607;-62
2023/09/30 06:46:15;;;;;;;18.58;11.95;;;;;;;;;;5123635;27;20226;-61
2023/09/30 06:48:42;;;;;;;20.38;13.48;;;;;;;;;;5124828;27;20324;-61
2023/09/30 06:51:17;;;;;;;23.40;12.75;;;;;;;;;;5120453;27;20217;-61
2023/09/30 06:53:45;;;;;;;20.23;11.25;;;;;;;;;;5124096;27;20541;-61
2023/09/30 06:56:14;;;;;;;17.95;11.32;;;;;;;;;;5123128;27;20712;-61
2023/09/30 06:58:42;;;;;;;18.38;10.82;;;;;;;;;;5124162;27;20198;-60
2023/09/30 07:01:15;;;;;;;23.23;11.32;;;;;;;;;;5123995;27;20193;-61
2023/09/30 07:03:42;;;;;;;21.30;11.13;;;;;;;;;;5124173;27;20190;-62
2023/09/30 07:06:10;;;;;;;21.33;11.35;;;;;;;;;;5123356;27;20194;-61
2023/09/30 07:08:38;;;;;;;18.27;9.85;;;;;;;;;;5122596;27;20634;-61
2023/09/30 07:11:05;;;;;;;21.08;10.85;;;;;;;;;;5120207;27;20592;-61
2023/09/30 07:13:36;;;;;;;20.23;10.82;;;;;;;;;;5123334;27;20193;-63
2023/09/30 07:16:03;;;;;;;18.88;10.77;;;;;;;;;;5124674;27;20201;-62
2023/09/30 07:18:31;;;;;;;21.67;10.95;;;;;;;;;;5122942;27;20209;-60
2023/09/30 07:20:59;;;;;;;20.55;10.68;;;;;;;;;;5125127;27;20190;-61
2023/09/30 07:23:30;;;;;;;18.25;10.13;;;;;;;;;;5124774;27;20193;-63
2023/09/30 07:25:57;;;;;;;22.65;10.50;;;;;;;;;;5124634;27;20182;-62
2023/09/30 07:28:24;;;;;;;17.23;10.57;;;;;;;;;;5125123;27;20262;-62
2023/09/30 07:30:52;;;;;;;18.40;10.80;;;;;;;;;;5124654;27;20189;-62
2023/09/30 07:33:19;;;;;;;26.73;14.13;;;;;;;;;;5125554;27;20555;-61
2023/09/30 07:35:46;;;;;;;24.65;13.25;;;;;;;;;;5124940;27;20201;-61
2023/09/30 07:38:14;;;;;;;20.63;13.57;;;;;;;;;;5124065;27;20217;-61
2023/09/30 07:40:42;;;;;;;22.35;10.70;;;;;;;;;;5121641;27;20218;-60
2023/09/30 07:43:12;;;;;;;16.77;9.98;;;;;;;;;;5122144;27;20276;-60
2023/09/30 07:45:40;;;;;;;13.48;10.18;;;;;;;;;;5122625;27;20198;-61
2023/09/30 07:48:09;;;;;;;16.17;10.30;;;;;;;;;;5123459;27;20227;-61
2023/09/30 07:50:39;;;;;;;20.15;10.38;;;;;;;;;;5122708;27;20206;-61
2023/09/30 07:53:06;;;;;;;21.58;9.88;;;;;;;;;;5124509;27;20280;-62
2023/09/30 07:55:34;;;;;;;19.08;10.30;;;;;;;;;;5123234;27;20533;-62
2023/09/30 07:58:03;;;;;;;21.77;9.60;;;;;;;;;;5122791;27;20301;-61
2023/09/30 08:00:33;;;;;;;15.57;9.90;;;;;;;;;;5124972;27;20198;-62
2023/09/30 08:03:01;;;;;;;22.73;10.15;;;;;;;;;;5121660;27;20190;-61
2023/09/30 08:05:29;;;;;;;16.00;9.43;;;;;;;;;;5123025;27;20251;-62
2023/09/30 08:07:56;;;;;;;14.43;9.60;;;;;;;;;;5124376;27;20664;-62
2023/09/30 08:10:24;;;;;;;16.23;9.77;;;;;;;;;;5131779;27;20257;-62
2023/09/30 08:12:51;;;;;;;17.80;8.82;;;;;;;;;;5114049;27;20192;-62
2023/09/30 08:15:19;;;;;;;15.52;9.18;;;;;;;;;;5113788;28;20221;-61
2023/09/30 08:17:46;;;;;;;18.10;9.18;;;;;;;;;;5113470;28;20258;-61
2023/09/30 08:20:14;;;;;;;15.95;9.25;;;;;;;;;;5113885;28;20414;-61
2023/09/30 08:22:41;;;;;;;13.60;9.20;;;;;;;;;;5131265;27;20220;-61
2023/09/30 08:25:09;;;;;;;17.17;9.10;;;;;;;;;;5131928;27;20641;-62
2023/09/30 08:27:39;;;;;;;23.88;9.57;;;;;;;;;;5132510;27;20197;-62
2023/09/30 08:30:07;;;;;;;15.07;8.85;;;;;;;;;;5131000;28;20189;-63
2023/09/30 08:32:34;;;;;;;20.55;8.98;;;;;;;;;;5115751;27;20193;-62
2023/09/30 08:35:03;;;;;;;20.02;9.63;;;;;;;;;;5112150;28;20201;-62
2023/09/30 08:37:31;;;;;;;17.55;9.15;;;;;;;;;;5112387;28;20222;-62
2023/09/30 08:39:59;;;;;;;17.08;8.10;;;;;;;;;;5113083;28;20194;-61
2023/09/30 08:42:32;;;;;;;12.70;8.57;;;;;;;;;;5113679;28;20208;-61
2023/09/30 08:45:02;;;;;;;16.58;8.55;;;;;;;;;;5112010;28;20182;-61
2023/09/30 08:47:29;;;;;;;17.67;8.65;;;;;;;;;;5128284;28;20193;-61
2023/09/30 08:50:05;;;;;;;15.43;8.48;;;;;;;;;;5133579;27;20345;-62
2023/09/30 08:52:34;;;;;;;15.85;9.05;;;;;;;;;;5133999;27;20197;-62
2023/09/30 08:55:08;;;;;;;15.35;9.43;;;;;;;;;;5133767;27;20197;-61
2023/09/30 08:57:40;;;;;;;18.15;9.55;;;;;;;;;;5082684;28;20228;-62
2023/09/30 09:00:13;;;;;;;20.95;9.55;;;;;;;;;;5113131;28;20185;-61
2023/09/30 09:02:41;;;;;;;21.25;9.40;;;;;;;;;;5113374;28;20194;-60
2023/09/30 09:05:09;;;;;;;16.02;9.05;;;;;;;;;;5112896;28;20194;-61
2023/09/30 09:07:36;;;;;;;19.77;10.35;;;;;;;;;;5114664;28;20210;-61
2023/09/30 09:10:10;;;;;;;16.00;9.95;;;;;;;;;;5119535;27;20564;-61
2023/09/30 09:12:38;;;;;;;21.20;9.55;;;;;;;;;;5114459;28;20297;-61
2023/09/30 09:15:08;;;;;;;19.02;10.13;;;;;;;;;;5134774;27;20637;-61
2023/09/30 09:17:45;;;;;;;20.67;10.65;;;;;;;;;;5124032;27;20315;-62
2023/09/30 09:20:21;;;;;;;16.88;9.80;;;;;;;;;;5123478;27;20222;-63
2023/09/30 09:22:52;;;;;;;18.88;10.30;;;;;;;;;;5122221;27;20221;-61
2023/09/30 09:25:23;;;;;;;17.80;10.55;;;;;;;;;;5115774;28;20286;-61
2023/09/30 09:27:53;;;;;;;20.15;10.13;;;;;;;;;;5131828;27;20559;-61
2023/09/30 09:30:22;;;;;;;17.75;10.45;;;;;;;;;;5136461;27;20229;-61
2023/09/30 09:33:01;;;;;;;18.83;11.18;;;;;;;;;;5136977;27;20221;-61
2023/09/30 09:35:32;;;;;;;17.92;10.80;;;;;;;;;;5136904;27;20617;-61
2023/09/30 09:38:08;;;;;;;16.52;10.15;;;;;;;;;;5133628;27;20229;-61
2023/09/30 09:40:40;;;;;;;20.35;10.95;;;;;;;;;;5136439;27;20224;-62
2023/09/30 09:43:09;;;;;;;19.42;10.77;;;;;;;;;;5137061;27;20192;-62
2023/09/30 09:45:37;;;;;;;17.88;11.25;;;;;;;;;;5137004;27;20208;-61
2023/09/30 09:48:06;;;;;;;20.15;10.93;;;;;;;;;;5137143;27;20209;-60
2023/09/30 09:50:38;;;;;;;19.00;9.75;;;;;;;;;;5125002;27;20209;-62
2023/09/30 09:53:06;;;;;;;21.23;9.88;;;;;;;;;;5132801;27;20250;-62
2023/09/30 09:55:38;;;;;;;19.80;10.02;;;;;;;;;;5135905;27;20205;-61
2023/09/30 09:58:06;;;;;;;19.20;9.82;;;;;;;;;;5111152;28;20552;-61
2023/09/30 10:00:35;;;;;;;19.88;9.93;;;;;;;;;;5115247;28;20202;-60
2023/09/30 10:03:02;;;;;;;16.08;9.65;;;;;;;;;;5131179;27;20198;-61
2023/09/30 10:05:30;;;;;;;18.98;10.45;;;;;;;;;;5136608;27;20261;-61
2023/09/30 10:08:04;;;;;;;15.85;9.80;;;;;;;;;;5135549;27;20284;-61
2023/09/30 10:10:35;;;;;;;16.63;10.05;;;;;;;;;;5135484;27;20899;-61
2023/09/30 10:13:03;;;;;;;14.85;9.38;;;;;;;;;;5121949;27;20197;-62
2023/09/30 10:15:31;;;;;;;14.57;9.35;;;;;;;;;;5115654;28;20285;-61
2023/09/30 10:18:03;;;;;;;18.92;10.25;;;;;;;;;;5115781;28;20281;-61
2023/09/30 10:20:32;;;;;;;16.58;9.95;;;;;;;;;;5116556;28;20190;-60
2023/09/30 10:23:17;;;;;;;15.60;10.05;;;;;;;;;;5115618;27;20541;-63
2023/09/30 10:25:49;;;;;;;16.75;10.20;;;;;;;;;;5130244;27;20188;-62
2023/09/30 10:28:40;;;;;;;21.27;11.77;;;;;;;;;;5119990;27;20200;-62
2023/09/30 10:31:21;;;;;;;17.85;10.65;;;;;;;;;;5122274;27;20720;-62
2023/09/30 10:34:19;;;;;;;21.58;10.52;;;;;;;;;;5115267;27;20614;-62
2023/09/30 10:36:48;;;;;;;18.80;11.27;;;;;;;;;;5114924;27;20219;-62
2023/09/30 10:39:15;;;;;;;19.25;10.32;;;;;;;;;;5115274;28;20222;-61
2023/09/30 10:41:50;;;;;;;16.20;10.32;;;;;;;;;;5114398;28;20182;-61
2023/09/30 10:44:30;;;;;;;16.95;10.55;;;;;;;;;;5115060;28;20194;-63
2023/09/30 10:46:58;;;;;;;18.42;11.40;;;;;;;;;;5115198;27;20186;-63
2023/09/30 10:49:26;;;;;;;18.73;9.82;;;;;;;;;;5115177;28;20254;-62
2023/09/30 10:51:56;;;;;;;19.42;10.40;;;;;;;;;;5114781;28;20607;-62
2023/09/30 10:54:31;;;;;;;17.98;10.23;;;;;;;;;;5114840;28;20198;-61
2023/09/30 10:56:59;;;;;;;16.27;10.45;;;;;;;;;;5115325;28;20217;-62
2023/09/30 10:59:30;;;;;;;18.25;10.60;;;;;;;;;;5114678;28;20248;-62
2023/09/30 11:01:59;;;;;;;20.02;10.75;;;;;;;;;;5114974;28;20568;-62
2023/09/30 11:04:29;;;;;;;16.85;10.95;;;;;;;;;;5114666;28;20221;-62
2023/09/30 11:06:57;;;;;;;20.80;11.32;;;;;;;;;;5115331;28;20198;-63
2023/09/30 11:09:25;;;;;;;18.42;10.77;;;;;;;;;;5114190;28;20206;-62
2023/09/30 11:11:53;;;;;;;19.77;11.05;;;;;;;;;;5116298;27;20233;-62
2023/09/30 11:14:27;;;;;;;19.38;10.77;;;;;;;;;;5134972;27;20211;-62
2023/09/30 11:17:03;;;;;;;23.73;11.35;;;;;;;;;;5135134;27;20200;-62
2023/09/30 11:19:35;;;;;;;18.40;10.85;;;;;;;;;;5135111;27;20212;-61
2023/09/30 11:22:03;;;;;;;16.35;11.07;;;;;;;;;;5135543;27;20186;-62
2023/09/30 11:24:30;;;;;;;22.40;11.30;;;;;;;;;;5133769;27;20209;-62
2023/09/30 11:26:57;;;;;;;17.83;11.15;;;;;;;;;;5133996;27;20284;-62
2023/09/30 11:29:26;;;;;;;17.70;11.27;;;;;;;;;;5135123;27;20209;-62
2023/09/30 11:31:55;;;;;;;15.32;11.45;;;;;;;;;;5132528;27;20198;-61
2023/09/30 11:34:32;;;;;;;19.77;12.15;;;;;;;;;;5134658;27;20204;-62
2023/09/30 11:37:01;;;;;;;17.70;11.73;;;;;;;;;;5132755;27;20189;-62
2023/09/30 11:39:29;;;;;;;20.17;12.13;;;;;;;;;;5134389;27;20213;-62
2023/09/30 11:41:58;;;;;;;22.45;11.75;;;;;;;;;;5121589;27;20654;-63
2023/09/30 11:44:31;;;;;;;18.50;11.98;;;;;;;;;;5134656;27;20201;-62
2023/09/30 11:47:04;;;;;;;19.83;11.55;;;;;;;;;;5134490;27;20208;-63
2023/09/30 11:49:35;;;;;;;18.92;11.23;;;;;;;;;;5134804;27;20197;-62
2023/09/30 11:52:10;;;;;;;17.33;10.35;;;;;;;;;;5127608;27;20638;-61
2023/09/30 11:54:48;;;;;;;18.73;10.95;;;;;;;;;;5129529;27;20659;-62
2023/09/30 11:57:16;;;;;;;23.00;11.15;;;;;;;;;;5113728;28;20197;-61
2023/09/30 11:59:45;;;;;;;18.67;11.48;;;;;;;;;;5113868;27;20221;-61
2023/09/30 12:02:14;;;;;;;15.90;11.20;;;;;;;;;;5116591;27;20207;-61
2023/09/30 12:04:43;;;;;;;16.95;11.75;;;;;;;;;;5120145;27;20548;-60
2023/09/30 12:07:12;;;;;;;17.92;12.02;;;;;;;;;;5112866;28;20230;-60
2023/09/30 12:09:39;;;;;;;19.77;11.90;;;;;;;;;;5113211;28;20316;-59
2023/09/30 12:12:09;;;;;;;21.92;12.13;;;;;;;;;;5113650;27;20241;-63
2023/09/30 12:14:39;;;;;;;16.75;10.98;;;;;;;;;;5130589;27;20269;-61
2023/09/30 12:17:17;;;;;;;18.73;12.10;;;;;;;;;;5100262;28;20229;-62
2023/09/30 12:19:44;;;;;;;20.23;12.00;;;;;;;;;;5124461;27;20225;-60
2023/09/30 12:22:11;;;;;;;21.30;13.02;;;;;;;;;;5123296;27;20240;-62
2023/09/30 12:24:39;;;;;;;21.02;12.98;;;;;;;;;;5130896;27;20248;-61
2023/09/30 12:27:07;;;;;;;19.42;12.75;;;;;;;;;;5126877;27;20235;-61
2023/09/30 12:29:34;;;;;;;20.25;13.23;;;;;;;;;;5093618;28;20222;-61
2023/09/30 12:32:02;;;;;;;23.23;12.85;;;;;;;;;;5115108;28;20651;-61
2023/09/30 12:34:30;;;;;;;22.83;13.82;;;;;;;;;;5111737;28;20225;-62
2023/09/30 12:36:58;;;;;;;22.88;12.88;;;;;;;;;;5112894;28;20248;-61
2023/09/30 12:39:25;;;;;;;17.70;12.32;;;;;;;;;;5130493;27;20244;-62
2023/09/30 12:41:54;;;;;;;18.92;13.18;;;;;;;;;;5113250;28;20233;-61
2023/09/30 12:44:22;;;;;;;17.83;12.27;;;;;;;;;;5132101;27;20229;-62
2023/09/30 12:46:50;;;;;;;21.25;12.60;;;;;;;;;;5130263;27;20225;-62
2023/09/30 12:49:18;;;;;;;19.77;13.30;;;;;;;;;;5113440;28;20228;-62
2023/09/30 12:51:46;;;;;;;24.05;13.88;;;;;;;;;;5116594;28;20218;-63
2023/09/30 12:54:14;;;;;;;27.63;15.23;;;;;;;;;;5132252;27;20210;-61
2023/09/30 12:56:42;;;;;;;23.60;14.73;;;;;;;;;;5129066;27;20273;-62
2023/09/30 12:59:09;;;;;;;28.67;14.82;;;;;;;;;;5135968;27;20316;-60
2023/09/30 13:01:36;;;;;;;25.95;15.07;;;;;;;;;;5135292;27;20485;-60
2023/09/30 13:04:07;;;;;;;27.08;15.27;;;;;;;;;;5136277;27;20218;-58
2023/09/30 13:06:36;;;;;;;27.58;16.48;;;;;;;;;;5137128;27;20232;-59
2023/09/30 13:09:04;;;;;;;26.65;14.88;;;;;;;;;;5136356;27;20224;-59
2023/09/30 13:11:32;;;;;;;25.23;14.90;;;;;;;;;;5136808;27;20623;-59
2023/09/30 13:14:03;;;;;;;24.85;15.18;;;;;;;;;;5136857;27;20224;-60
2023/09/30 13:16:31;;;;;;;23.35;15.30;;;;;;;;;;5126421;27;20221;-59
2023/09/30 13:18:58;;;;;;;23.30;15.00;;;;;;;;;;5125499;27;20238;-63
2023/09/30 13:21:27;;;;;;;24.48;16.17;;;;;;;;;;5116535;28;20317;-62
2023/09/30 13:23:54;;;;;;;23.88;15.82;;;;;;;;;;5116433;28;20260;-61
2023/09/30 13:26:21;;;;;;;28.02;15.57;;;;;;;;;;5115998;28;20290;-61
2023/09/30 13:28:48;;;;;;;30.98;15.98;;;;;;;;;;5115468;28;20226;-63
2023/09/30 13:31:16;;;;;;;23.10;14.77;;;;;;;;;;5120946;27;20759;-61
2023/09/30 13:33:44;;;;;;;25.30;14.80;;;;;;;;;;5123766;27;20221;-64
2023/09/30 13:36:11;;;;;;;23.42;14.18;;;;;;;;;;5130272;27;20239;-61
2023/09/30 13:38:38;;;;;;;22.75;15.27;;;;;;;;;;5134557;27;20241;-62
2023/09/30 13:41:06;;;;;;;30.08;14.73;;;;;;;;;;5133323;27;20225;-62
2023/09/30 13:43:33;;;;;;;28.45;16.08;;;;;;;;;;5127796;27;20601;-62
2023/09/30 13:46:06;;;;;;;22.35;14.90;;;;;;;;;;5122508;27;20229;-62
2023/09/30 13:48:34;;;;;;;25.95;17.25;;;;;;;;;;5118826;27;20312;-63
2023/09/30 13:51:06;;;;;;;25.92;15.93;;;;;;;;;;5133768;27;20612;-62
2023/09/30 13:53:33;;;;;;;23.08;15.68;;;;;;;;;;5135227;27;20222;-65
2023/09/30 13:56:01;;;;;;;23.95;15.65;;;;;;;;;;5133511;27;20229;-64
2023/09/30 13:58:28;;;;;;;28.98;16.48;;;;;;;;;;5136320;27;20228;-63
2023/09/30 14:00:58;;;;;;;26.92;16.27;;;;;;;;;;5134594;27;20213;-64
2023/09/30 14:03:25;;;;;;;24.48;16.15;;;;;;;;;;5136072;27;20287;-63
2023/09/30 14:05:53;;;;;;;26.95;16.25;;;;;;;;;;5135541;27;20235;-62
2023/09/30 14:08:20;;;;;;;28.10;16.17;;;;;;;;;;5133029;27;20217;-61
2023/09/30 14:10:47;;;;;;;23.90;15.18;;;;;;;;;;5116361;27;20233;-61
2023/09/30 14:13:18;;;;;;;21.60;14.60;;;;;;;;;;5127633;27;20223;-61
2023/09/30 14:15:49;;;;;;;22.75;13.85;;;;;;;;;;5118375;27;20320;-59
2023/09/30 14:18:16;;;;;;;19.48;13.70;;;;;;;;;;5114669;27;20226;-63
2023/09/30 14:20:44;;;;;;;23.60;14.30;;;;;;;;;;5115008;28;20237;-62
2023/09/30 14:23:11;;;;;;;18.48;12.27;;;;;;;;;;5115420;28;20226;-60
2023/09/30 14:25:39;;;;;;;17.77;11.45;;;;;;;;;;5111042;27;20217;-61
2023/09/30 14:28:06;;;;;;;15.20;10.07;;;;;;;;;;5119306;27;20218;-60
2023/09/30 14:30:34;;;;;;;18.40;10.77;;;;;;;;;;5114407;28;20308;-63